Time;durP1;ratioP1;P1;durP2;ratioP2;P2;SDS_P1;SDS_P2;PMS_P1;PMS_P2;Temp;Humidity;BMP_temperature;BMP_pressure;BME280_temperature;BME280_humidity;BME280_pressure;Samples;Min_cycle;Max_cycle;Signal;HPM_P1;HPM_P2
2023/04/26 02:21:08;;;;;;;10.68;6.55;;;;;;;10.67;98.14;100249.25;10513456;27;1725077;-72
2023/04/26 02:26:08;;;;;;;11.82;6.85;;;;;;;10.55;97.62;100224.06;10556507;28;20063;-72
2023/04/26 02:31:10;;;;;;;23.45;6.78;;;;;;;10.79;97.26;100252.38;10573966;28;20443;-72
2023/04/26 02:36:10;;;;;;;24.00;7.95;;;;;;;10.65;97.04;100209.59;10573831;28;20093;-72
2023/04/26 02:41:11;;;;;;;15.48;7.68;;;;;;;10.79;97.17;100196.56;10569734;28;20052;-72
2023/04/26 02:46:13;;;;;;;11.82;6.80;;;;;;;11.54;97.69;100265.13;10558429;28;20036;-72
2023/04/26 02:51:14;;;;;;;9.05;6.63;;;;;;;12.01;96.97;100249.00;10525344;28;20058;-72
2023/04/26 02:56:15;;;;;;;12.85;7.45;;;;;;;12.58;95.80;100271.59;10528126;28;20047;-73
2023/04/26 03:01:17;;;;;;;11.10;6.47;;;;;;;13.14;94.09;100233.78;10512844;28;20595;-71
2023/04/26 03:06:18;;;;;;;9.32;5.32;;;;;;;14.43;90.92;100274.66;10512553;28;20048;-70
2023/04/26 03:11:19;;;;;;;6.53;5.00;;;;;;;15.40;87.50;100275.59;10475222;28;20066;-72
2023/04/26 03:16:20;;;;;;;6.03;4.25;;;;;;;16.59;83.54;100288.31;10364347;28;20038;-70
2023/04/26 03:21:21;;;;;;;7.50;4.22;;;;;;;17.33;79.14;100279.03;10362448;28;20177;-68
2023/04/26 03:26:22;;;;;;;6.93;3.28;;;;;;;17.86;72.90;100284.13;10359980;28;20081;-69
2023/04/26 03:31:22;;;;;;;6.22;2.70;;;;;;;18.03;69.81;100239.53;10343440;28;20070;-70
2023/04/26 03:36:23;;;;;;;5.47;2.80;;;;;;;18.85;67.28;100292.41;10336890;28;20042;-71
2023/04/26 03:41:24;;;;;;;7.28;2.90;;;;;;;19.04;65.67;100247.44;10336464;28;20040;-69
2023/04/26 03:46:25;;;;;;;11.40;2.95;;;;;;;20.30;63.18;100294.16;10363454;28;20108;-69
2023/04/26 03:51:27;;;;;;;5.70;2.85;;;;;;;20.28;61.96;100293.56;10375599;28;20050;-70
2023/04/26 03:56:27;;;;;;;3.13;2.00;;;;;;;20.79;60.35;100292.09;10376787;28;20038;-69
2023/04/26 04:01:28;;;;;;;4.68;1.92;;;;;;;19.81;59.57;100307.78;10377166;28;20042;-71
2023/04/26 04:06:29;;;;;;;4.53;1.73;;;;;;;17.97;62.64;100229.66;10376629;28;20038;-70
2023/04/26 04:11:30;;;;;;;5.53;2.20;;;;;;;18.20;61.82;100300.84;10375834;28;20049;-71
2023/04/26 04:16:31;;;;;;;2.88;1.58;;;;;;;17.87;61.61;100231.22;10376760;28;20052;-72
2023/04/26 04:21:32;;;;;;;4.63;1.98;;;;;;;17.34;62.16;100310.19;10375713;28;20052;-72
2023/04/26 04:26:33;;;;;;;3.30;2.00;;;;;;;16.46;63.70;100312.47;10376080;28;20045;-71
2023/04/26 04:31:38;;;;;;;4.72;1.88;;;;;;;15.64;66.31;100276.91;10367682;28;20084;-72
2023/04/26 04:36:39;;;;;;;5.05;1.83;;;;;;;15.68;66.60;100310.31;10375126;28;20045;-75
2023/04/26 04:41:46;;;;;;;6.47;2.08;;;;;;;15.57;67.53;100332.28;10373548;28;20064;-74
2023/04/26 04:46:47;;;;;;;4.22;2.03;;;;;;;15.63;67.98;100324.28;10373957;28;20081;-74
2023/04/26 04:51:48;;;;;;;10.35;2.17;;;;;;;15.67;68.61;100330.03;10374711;28;20417;-73
2023/04/26 04:56:49;;;;;;;4.22;2.35;;;;;;;15.66;68.88;100323.88;10374878;28;20037;-75
2023/04/26 05:01:50;;;;;;;3.78;2.05;;;;;;;15.93;68.72;100335.50;10374649;28;20076;-74
2023/04/26 05:06:51;;;;;;;5.93;1.98;;;;;;;15.99;68.13;100325.81;10374447;28;20081;-75
2023/04/26 05:11:51;;;;;;;5.10;1.88;;;;;;;15.76;67.44;100277.97;10373702;28;20046;-73
2023/04/26 05:16:53;;;;;;;2.78;1.52;;;;;;;16.08;67.71;100327.28;10373503;28;20119;-73
2023/04/26 05:21:56;;;;;;;7.22;1.83;;;;;;;15.78;67.20;100242.97;10374394;28;20379;-73
2023/04/26 05:26:59;;;;;;;5.72;2.05;;;;;;;16.28;66.59;100238.03;10373324;28;20134;-73
2023/04/26 05:32:00;;;;;;;4.63;1.83;;;;;;;17.68;63.85;100287.53;10373665;28;20042;-71
2023/04/26 05:37:01;;;;;;;4.68;1.80;;;;;;;18.08;62.15;100265.75;10373044;28;20041;-74
2023/04/26 05:42:02;;;;;;;6.13;1.63;;;;;;;17.91;60.10;100216.28;10372934;28;20042;-73
2023/04/26 05:47:03;;;;;;;3.90;1.70;;;;;;;18.26;60.29;100283.81;10373205;28;20038;-73
2023/04/26 05:52:04;;;;;;;3.53;1.40;;;;;;;18.41;59.95;100259.28;10372204;28;20445;-75
2023/04/26 05:57:04;;;;;;;2.97;1.30;;;;;;;18.55;58.45;100216.94;10372230;28;20501;-73
2023/04/26 06:02:05;;;;;;;3.20;1.20;;;;;;;19.30;58.08;100273.22;10372775;28;20139;-74
2023/04/26 06:07:06;;;;;;;3.25;1.50;;;;;;;19.48;57.01;100275.88;10372484;28;20049;-71
2023/04/26 06:12:07;;;;;;;3.22;1.50;;;;;;;19.06;56.69;100197.72;10371850;28;20034;-75
2023/04/26 06:17:08;;;;;;;3.00;1.30;;;;;;;19.63;55.99;100272.78;10371974;28;20081;-71
2023/04/26 06:22:09;;;;;;;2.95;1.38;;;;;;;19.86;55.63;100261.25;10371927;28;20053;-74
2023/04/26 06:27:10;;;;;;;5.25;1.30;;;;;;;19.83;55.13;100241.00;10371884;28;20072;-72
2023/04/26 06:32:10;;;;;;;2.47;1.00;;;;;;;20.24;54.74;100260.84;10371491;28;20571;-73
2023/04/26 06:37:11;;;;;;;2.13;1.20;;;;;;;20.21;54.50;100257.78;10372032;28;20050;-72
2023/04/26 06:42:12;;;;;;;5.10;0.88;;;;;;;20.46;54.25;100261.09;10371573;28;20502;-72
2023/04/26 06:47:13;;;;;;;2.45;0.90;;;;;;;20.54;54.21;100246.44;10371932;28;20404;-73
2023/04/26 06:52:14;;;;;;;2.25;0.90;;;;;;;20.64;53.56;100221.56;10372212;28;20042;-72
2023/04/26 06:57:15;;;;;;;3.38;1.15;;;;;;;20.85;53.13;100245.25;10371785;28;20041;-73
2023/04/26 07:02:16;;;;;;;1.77;0.88;;;;;;;21.14;52.90;100246.09;10371018;28;20042;-72
2023/04/26 07:07:17;;;;;;;5.32;1.15;;;;;;;21.25;52.35;100252.53;10377487;28;20041;-72
2023/04/26 07:12:17;;;;;;;2.03;0.90;;;;;;;21.55;52.09;100246.09;10378754;28;20092;-73
2023/04/26 07:17:18;;;;;;;2.20;1.10;;;;;;;21.48;51.76;100240.84;10378074;28;20054;-73
2023/04/26 07:22:19;;;;;;;2.33;0.80;;;;;;;21.67;51.26;100229.81;10378663;28;20422;-73
2023/04/26 07:27:20;;;;;;;1.42;0.80;;;;;;;21.51;50.70;100153.00;10378247;28;20038;-73
2023/04/26 07:32:21;;;;;;;3.15;1.20;;;;;;;21.81;50.30;100153.53;10377991;28;20516;-73
2023/04/26 07:37:22;;;;;;;3.60;0.77;;;;;;;22.53;49.70;100219.53;10377983;28;20049;-73
2023/04/26 07:42:23;;;;;;;3.03;1.00;;;;;;;22.60;49.25;100222.06;10377949;28;20049;-73
2023/04/26 07:47:23;;;;;;;1.83;0.82;;;;;;;22.42;48.12;100205.03;10377398;28;20042;-72
2023/04/26 07:52:24;;;;;;;2.88;0.90;;;;;;;22.89;48.19;100215.41;10377793;28;20041;-73
2023/04/26 07:57:25;;;;;;;1.58;0.80;;;;;;;22.76;48.19;100192.22;10377171;28;20061;-73
2023/04/26 08:02:26;;;;;;;2.00;0.80;;;;;;;23.10;47.59;100202.94;10377211;28;20042;-73
2023/04/26 08:07:27;;;;;;;4.57;1.02;;;;;;;22.87;47.09;100140.88;10376762;28;20052;-72
2023/04/26 08:12:27;;;;;;;3.08;0.90;;;;;;;23.13;47.19;100147.41;10376144;28;20037;-74
2023/04/26 08:17:28;;;;;;;9.32;1.23;;;;;;;22.90;46.87;100097.03;10375776;28;20509;-74
2023/04/26 08:22:29;;;;;;;2.42;1.10;;;;;;;23.50;46.72;100146.66;10375789;28;20045;-72
2023/04/26 08:27:30;;;;;;;4.13;1.00;;;;;;;23.77;46.44;100143.94;10376776;28;20535;-72
2023/04/26 08:32:32;;;;;;;3.47;0.90;;;;;;;23.72;45.65;100133.03;10374171;28;20050;-73
2023/04/26 08:37:34;;;;;;;5.53;1.00;;;;;;;24.25;44.96;100139.34;10376604;28;20552;-72
2023/04/26 08:42:43;;;;;;;4.40;1.10;;;;;;;23.99;43.97;100135.66;10375595;28;20033;-72
2023/04/26 08:47:47;;;;;;;3.08;0.77;;;;;;;24.23;43.32;100117.91;10375143;28;20050;-72
2023/04/26 08:52:50;;;;;;;2.95;0.90;;;;;;;23.78;43.24;100026.22;10374545;28;20041;-73
2023/04/26 08:57:51;;;;;;;6.67;0.87;;;;;;;24.51;43.19;100140.31;10374422;28;20463;-73
2023/04/26 09:02:52;;;;;;;7.38;0.70;;;;;;;24.58;43.19;100130.81;10368006;28;20047;-73
2023/04/26 09:07:59;;;;;;;4.63;0.75;;;;;;;24.66;42.45;100120.53;10333478;28;20399;-73
2023/04/26 09:13:00;;;;;;;1.70;0.73;;;;;;;24.24;42.87;100118.72;10333964;28;20049;-73
2023/04/26 09:18:22;;;;;;;2.40;0.80;;;;;;;24.06;42.14;100115.38;10333869;28;20054;-72
2023/04/26 09:23:23;;;;;;;3.40;0.70;;;;;;;23.79;43.27;100076.69;10332964;28;20144;-72
2023/04/26 09:28:25;;;;;;;3.67;0.98;;;;;;;23.86;42.77;100042.00;10332935;28;20069;-73
2023/04/26 09:33:25;;;;;;;3.80;1.08;;;;;;;24.74;42.37;100077.38;10333469;28;20042;-75
2023/04/26 09:38:26;;;;;;;3.63;0.73;;;;;;;25.22;41.73;100082.66;10332858;28;20513;-73
2023/04/26 09:43:36;;;;;;;4.18;1.25;;;;;;;25.27;41.13;100085.34;10332762;28;20046;-72
2023/04/26 09:48:37;;;;;;;1.95;0.70;;;;;;;25.72;41.00;100075.50;10332608;28;20129;-72
2023/04/26 09:53:40;;;;;;;3.45;0.98;;;;;;;25.67;39.55;100087.22;10332498;28;20120;-73
2023/04/26 09:58:47;;;;;;;3.87;1.10;;;;;;;25.54;39.13;100011.63;10332017;28;20042;-71
2023/04/26 10:03:49;;;;;;;3.65;1.00;;;;;;;25.53;39.45;100055.44;10332697;28;20088;-73
2023/04/26 10:08:49;;;;;;;7.35;0.88;;;;;;;25.17;39.46;99952.97;10331998;28;20042;-73
2023/04/26 10:13:50;;;;;;;4.10;1.20;;;;;;;26.30;38.63;100083.28;10331983;28;20065;-73
2023/04/26 10:18:51;;;;;;;1.30;0.80;;;;;;;26.14;38.97;100072.44;10331743;28;20058;-72
2023/04/26 10:23:52;;;;;;;2.83;0.90;;;;;;;26.26;37.95;100063.94;10331681;28;20088;-72
2023/04/26 10:28:55;;;;;;;2.35;0.73;;;;;;;26.54;37.23;100064.41;10330516;28;20042;-72
2023/04/26 10:34:18;;;;;;;1.98;1.10;;;;;;;26.19;35.71;100063.44;10331658;28;20045;-72
2023/04/26 10:39:20;;;;;;;7.05;1.58;;;;;;;26.38;37.37;100059.00;10333164;28;20039;-73
2023/04/26 10:44:39;;;;;;;8.80;1.40;;;;;;;27.05;36.79;100050.44;10339059;28;20042;-73
2023/04/26 10:49:45;;;;;;;5.35;1.38;;;;;;;27.18;36.26;100052.53;10338751;28;20042;-72
2023/04/26 10:54:51;;;;;;;3.47;1.45;;;;;;;26.95;35.01;100050.50;10339291;28;20042;-72
2023/04/26 11:00:09;;;;;;;4.35;0.90;;;;;;;27.21;36.01;100034.78;10338564;28;20054;-74
2023/04/26 11:05:10;;;;;;;5.03;1.20;;;;;;;26.57;35.92;100034.69;10338446;28;20125;-72
2023/04/26 11:10:21;;;;;;;6.25;1.27;;;;;;;26.67;35.30;100036.53;10338967;28;20449;-72
2023/04/26 11:15:23;;;;;;;3.15;0.88;;;;;;;25.56;36.09;99997.75;10338898;28;20077;-72
2023/04/26 11:20:31;;;;;;;7.43;1.08;;;;;;;25.54;36.50;100019.78;10337492;28;20145;-73
2023/04/26 11:25:32;;;;;;;3.65;0.95;;;;;;;24.93;36.92;99969.00;10338052;28;20046;-72
2023/04/26 11:30:33;;;;;;;4.15;1.20;;;;;;;25.26;37.38;100016.56;10337310;28;20045;-72
2023/04/26 11:35:34;;;;;;;3.42;1.00;;;;;;;25.48;36.73;100002.66;10337993;28;20042;-73
2023/04/26 11:40:36;;;;;;;3.58;1.13;;;;;;;25.60;36.24;99977.88;10338214;28;20077;-72
2023/04/26 11:45:37;;;;;;;6.45;1.05;;;;;;;25.01;36.61;99944.00;10337207;28;20141;-71
2023/04/26 11:50:39;;;;;;;2.65;0.85;;;;;;;25.39;36.80;100003.50;10336807;28;20073;-72
2023/04/26 11:55:40;;;;;;;11.52;1.70;;;;;;;25.15;37.09;99995.09;10336509;28;20513;-73
2023/04/26 12:00:57;;;;;;;5.95;1.35;;;;;;;25.26;36.09;100000.25;10337059;28;20103;-71
2023/04/26 12:05:57;;;;;;;3.67;0.75;;;;;;;24.76;37.22;99999.13;10336379;28;20410;-72
2023/04/26 12:11:02;;;;;;;5.03;0.85;;;;;;;25.03;37.26;100001.59;10336298;28;20045;-72
2023/04/26 12:16:08;;;;;;;4.40;0.80;;;;;;;24.78;37.57;100010.56;10335634;28;20050;-72
2023/04/26 12:21:09;;;;;;;7.93;0.90;;;;;;;24.94;37.74;100000.50;10336480;28;20086;-71
2023/04/26 12:26:10;;;;;;;4.18;0.90;;;;;;;24.65;37.96;99993.97;10335456;28;20054;-71
2023/04/26 12:31:12;;;;;;;14.43;1.45;;;;;;;24.62;38.26;99992.63;10334820;28;20422;-71
2023/04/26 12:36:12;;;;;;;5.95;1.52;;;;;;;24.75;37.66;99999.41;10334816;28;20046;-72
2023/04/26 12:41:13;;;;;;;2.97;0.82;;;;;;;24.54;37.51;99988.53;10340028;28;20045;-71
2023/04/26 12:46:14;;;;;;;5.22;0.82;;;;;;;24.65;37.31;99980.38;10371121;28;20494;-72
2023/04/26 12:51:15;;;;;;;5.82;1.10;;;;;;;24.55;37.66;99982.00;10371855;28;20064;-72
2023/04/26 12:56:16;;;;;;;3.45;0.90;;;;;;;24.20;37.87;99962.88;10370252;28;20037;-72
2023/04/26 13:01:17;;;;;;;4.40;0.82;;;;;;;24.11;38.27;99989.72;10373243;28;20045;-72
2023/04/26 13:06:18;;;;;;;6.47;1.17;;;;;;;24.00;38.61;99993.50;10373818;28;20056;-71
2023/04/26 13:11:18;;;;;;;6.22;1.08;;;;;;;23.53;39.37;99919.22;10374874;28;20045;-72
2023/04/26 13:16:19;;;;;;;6.65;1.25;;;;;;;24.02;39.31;99996.75;10373694;28;20129;-72
2023/04/26 13:21:20;;;;;;;8.13;1.08;;;;;;;24.28;38.94;99976.75;10372955;28;20512;-73
2023/04/26 13:26:21;;;;;;;6.07;1.27;;;;;;;24.14;38.70;99959.34;10373152;28;20044;-72
2023/04/26 13:31:22;;;;;;;7.72;1.10;;;;;;;24.22;38.93;99996.00;10371670;28;20054;-72
2023/04/26 13:36:22;;;;;;;11.77;1.45;;;;;;;23.91;39.13;99991.28;10371928;28;20042;-73
2023/04/26 13:41:23;;;;;;;6.85;1.38;;;;;;;23.68;39.18;99978.13;10372025;28;20517;-72
2023/04/26 13:46:24;;;;;;;7.05;1.65;;;;;;;23.59;39.24;99966.16;10354235;28;20667;-72
2023/04/26 13:51:25;;;;;;;8.30;1.45;;;;;;;23.98;38.85;99974.75;10346594;28;20049;-73
2023/04/26 13:56:26;;;;;;;5.80;1.30;;;;;;;23.94;38.90;99987.25;10349146;28;20044;-73
2023/04/26 14:01:28;;;;;;;13.23;1.35;;;;;;;23.89;38.89;100003.50;10345589;28;20120;-72
2023/04/26 14:06:31;;;;;;;8.23;1.48;;;;;;;23.53;38.84;99997.03;10348529;28;20156;-73
2023/04/26 14:11:32;;;;;;;5.57;1.05;;;;;;;23.29;39.46;99985.75;10368238;28;20041;-72
2023/04/26 14:16:32;;;;;;;7.53;1.48;;;;;;;23.11;39.89;99990.50;10371785;28;20050;-72
2023/04/26 14:21:33;;;;;;;10.43;1.70;;;;;;;23.15;39.87;99986.19;10356456;28;20576;-71
2023/04/26 14:26:34;;;;;;;7.38;1.20;;;;;;;22.76;39.71;99905.19;10331254;28;20053;-74
2023/04/26 14:31:35;;;;;;;6.82;1.30;;;;;;;23.43;39.12;99974.22;10368361;28;20047;-72
2023/04/26 14:36:36;;;;;;;7.00;1.10;;;;;;;23.07;38.90;99923.56;10354391;28;20034;-72
2023/04/26 14:41:37;;;;;;;9.00;1.17;;;;;;;23.11;39.14;99936.31;10331899;28;20082;-72
2023/04/26 14:46:38;;;;;;;5.15;1.23;;;;;;;23.22;39.31;99969.75;10371352;28;20038;-74
2023/04/26 14:51:39;;;;;;;4.47;1.20;;;;;;;22.97;39.53;99956.81;10371348;28;20077;-74
2023/04/26 14:56:39;;;;;;;10.20;1.23;;;;;;;22.83;39.81;99963.72;10371483;28;20034;-72
2023/04/26 15:01:40;;;;;;;6.30;1.10;;;;;;;22.48;40.18;99941.47;10371425;28;20092;-72
2023/04/26 15:06:41;;;;;;;11.25;1.35;;;;;;;21.87;40.80;99886.72;10370905;28;20037;-72
2023/04/26 15:11:42;;;;;;;7.72;1.30;;;;;;;22.23;41.15;99979.94;10370876;28;20523;-72
2023/04/26 15:16:43;;;;;;;5.80;1.60;;;;;;;21.94;41.43;99978.47;10370722;28;20125;-70
2023/04/26 15:21:45;;;;;;;7.70;1.40;;;;;;;21.65;41.87;99978.63;10371639;28;20061;-71
2023/04/26 15:26:45;;;;;;;8.77;1.42;;;;;;;21.46;42.57;99988.09;10375275;28;20060;-71
2023/04/26 15:31:46;;;;;;;5.10;1.23;;;;;;;21.04;43.06;99958.81;10378308;28;20037;-73
2023/04/26 15:36:47;;;;;;;9.13;1.40;;;;;;;20.84;43.72;99979.00;10377788;28;20163;-73
2023/04/26 15:41:47;;;;;;;10.48;1.55;;;;;;;20.68;44.14;99988.72;10378069;28;20123;-72
2023/04/26 15:46:48;;;;;;;9.95;1.55;;;;;;;20.25;44.82;99963.09;10377578;28;20501;-71
2023/04/26 15:51:49;;;;;;;11.32;1.58;;;;;;;19.74;45.55;99924.38;10377158;28;20042;-72
2023/04/26 15:56:51;;;;;;;6.95;1.13;;;;;;;19.99;45.80;100023.78;10377307;28;20160;-71
2023/04/26 16:01:52;;;;;;;5.93;1.20;;;;;;;19.76;46.13;100007.66;10377302;28;20046;-73
2023/04/26 16:06:53;;;;;;;7.65;1.40;;;;;;;19.59;46.64;100021.84;10370497;28;20037;-72
2023/04/26 16:11:53;;;;;;;7.45;1.20;;;;;;;19.34;47.02;100010.47;10340271;28;20054;-71
2023/04/26 16:16:54;;;;;;;8.30;1.42;;;;;;;19.21;47.31;100024.16;10360252;28;20057;-69
2023/04/26 16:21:56;;;;;;;9.43;1.55;;;;;;;19.02;47.89;100036.88;10362595;28;20034;-71
2023/04/26 16:26:56;;;;;;;8.43;1.25;;;;;;;18.82;48.09;100034.50;10358767;28;20096;-70
2023/04/26 16:31:57;;;;;;;7.72;1.02;;;;;;;18.65;48.27;100037.78;10355951;28;20041;-71
2023/04/26 16:36:58;;;;;;;7.13;1.00;;;;;;;18.32;48.54;100010.53;10353625;28;20449;-70
2023/04/26 16:41:59;;;;;;;8.43;1.20;;;;;;;18.25;48.74;100024.88;10362376;28;20045;-71
2023/04/26 16:47:00;;;;;;;6.18;1.33;;;;;;;18.17;49.25;100041.31;10352128;28;20046;-70
2023/04/26 16:52:01;;;;;;;5.15;1.10;;;;;;;17.57;49.53;99973.97;10358132;28;20219;-70
2023/04/26 16:57:03;;;;;;;2.88;0.65;;;;;;;17.91;49.17;100046.97;10354042;28;20092;-73
2023/04/26 17:02:04;;;;;;;7.88;1.10;;;;;;;17.73;49.16;100037.81;10354459;28;20044;-71
2023/04/26 17:07:04;;;;;;;4.88;0.90;;;;;;;17.65;49.52;100058.78;10359247;28;20375;-72
2023/04/26 17:12:06;;;;;;;7.82;1.05;;;;;;;17.56;49.39;100067.13;10355054;28;20142;-71
2023/04/26 17:17:07;;;;;;;7.03;0.90;;;;;;;17.55;49.56;100083.47;10359798;28;20045;-72
2023/04/26 17:22:08;;;;;;;7.47;1.10;;;;;;;17.22;49.96;100044.28;10353287;28;20044;-70
2023/04/26 17:27:09;;;;;;;6.57;1.05;;;;;;;16.86;50.31;100010.91;10352878;28;20037;-72
2023/04/26 17:32:10;;;;;;;8.00;0.85;;;;;;;17.05;50.58;100051.22;10368299;28;20041;-70
2023/04/26 17:37:10;;;;;;;3.92;1.30;;;;;;;17.04;50.86;100076.41;10373094;28;20049;-71
2023/04/26 17:42:11;;;;;;;6.10;1.17;;;;;;;16.94;50.93;100068.03;10372061;28;20611;-69
2023/04/26 17:47:12;;;;;;;8.32;1.20;;;;;;;16.75;51.11;100050.97;10369980;28;20046;-71
2023/04/26 17:52:13;;;;;;;5.03;1.33;;;;;;;16.76;51.14;100079.50;10371748;28;20046;-71
2023/04/26 17:57:19;;;;;;;5.07;1.15;;;;;;;16.66;51.49;100077.22;10371720;28;20046;-71
2023/04/26 18:02:19;;;;;;;6.95;1.27;;;;;;;16.51;51.75;100068.63;10371272;28;20041;-71
2023/04/26 18:07:20;;;;;;;4.35;1.10;;;;;;;16.42;51.87;100068.91;10371964;28;20441;-72
2023/04/26 18:12:21;;;;;;;8.77;1.45;;;;;;;15.39;52.39;99934.03;10372232;28;20552;-71
2023/04/26 18:17:22;;;;;;;6.03;1.20;;;;;;;15.82;52.59;100033.41;10371492;28;20136;-71
2023/04/26 18:22:24;;;;;;;11.52;1.55;;;;;;;16.01;52.91;100088.00;10371210;28;20132;-72
2023/04/26 18:27:24;;;;;;;6.97;1.30;;;;;;;15.87;53.31;100071.13;10369988;28;20587;-71
2023/04/26 18:32:25;;;;;;;9.32;1.60;;;;;;;15.74;53.58;100063.94;10371021;28;20046;-70
2023/04/26 18:37:26;;;;;;;5.03;1.40;;;;;;;15.17;53.59;99973.59;10370663;28;20046;-71
2023/04/26 18:42:27;;;;;;;4.22;1.52;;;;;;;15.26;53.62;100009.81;10371524;28;20394;-71
2023/04/26 18:47:28;;;;;;;5.88;1.42;;;;;;;15.58;53.98;100058.16;10370949;28;20135;-70
2023/04/26 18:52:28;;;;;;;3.50;1.38;;;;;;;15.34;53.99;100027.50;10371664;28;20079;-71
2023/04/26 18:57:29;;;;;;;4.65;1.50;;;;;;;15.45;54.26;100059.00;10371396;28;20074;-71
2023/04/26 19:02:30;;;;;;;4.78;1.23;;;;;;;15.31;54.42;100042.09;10377661;28;20476;-70
2023/04/26 19:07:31;;;;;;;4.78;1.23;;;;;;;14.63;54.63;99948.69;10378934;28;20073;-71
2023/04/26 19:12:32;;;;;;;5.93;1.38;;;;;;;15.17;54.73;100040.47;10378983;28;20050;-71
2023/04/26 19:17:33;;;;;;;6.13;1.05;;;;;;;15.11;54.78;100030.59;10378820;28;20061;-71
2023/04/26 19:22:34;;;;;;;6.88;1.48;;;;;;;14.90;54.69;100005.69;10353316;28;20046;-71
2023/04/26 19:27:35;;;;;;;5.50;1.20;;;;;;;14.97;55.30;100043.94;10338136;28;20439;-71
2023/04/26 19:32:36;;;;;;;4.25;1.30;;;;;;;14.86;55.42;100033.84;10337827;28;20062;-71
2023/04/26 19:37:37;;;;;;;5.00;1.10;;;;;;;14.57;55.59;100002.97;10337074;28;20050;-71
2023/04/26 19:42:38;;;;;;;5.53;1.30;;;;;;;14.61;56.10;100028.25;10337140;28;20039;-71
2023/04/26 19:47:41;;;;;;;4.53;1.38;;;;;;;14.51;56.96;100034.00;10336615;28;20100;-72
2023/04/26 19:52:42;;;;;;;9.75;1.60;;;;;;;14.41;56.51;100013.97;10337565;28;20154;-71
2023/04/26 19:57:43;;;;;;;7.75;1.17;;;;;;;14.34;56.46;100022.78;10418617;28;20611;-71
2023/04/26 20:02:44;;;;;;;6.93;1.05;;;;;;;14.28;56.71;100026.28;10419307;28;20064;-71
2023/04/26 20:07:45;;;;;;;8.23;1.30;;;;;;;14.11;56.78;100004.41;10417291;28;20143;-72
2023/04/26 20:12:46;;;;;;;9.48;1.50;;;;;;;14.29;56.69;100035.09;10417516;28;20046;-72
2023/04/26 20:17:46;;;;;;;9.80;1.30;;;;;;;14.02;57.28;100008.28;10416790;28;20057;-72
2023/04/26 20:22:47;;;;;;;3.38;1.30;;;;;;;14.12;57.74;100038.13;10417737;28;20041;-72
2023/04/26 20:27:48;;;;;;;5.22;1.30;;;;;;;14.14;58.18;100065.44;10416418;28;20048;-71
2023/04/26 20:32:49;;;;;;;8.05;1.20;;;;;;;13.74;58.25;100028.88;10416986;28;20041;-71
2023/04/26 20:37:50;;;;;;;9.60;1.38;;;;;;;13.55;58.89;100028.56;10416390;28;20489;-71
2023/04/26 20:42:51;;;;;;;7.00;1.30;;;;;;;12.75;59.51;99942.56;10416628;28;20041;-72
2023/04/26 20:47:52;;;;;;;6.15;1.05;;;;;;;13.43;59.41;100073.66;10415647;28;20051;-71
2023/04/26 20:52:53;;;;;;;7.72;1.38;;;;;;;13.44;59.97;100085.97;10415748;28;20598;-71
2023/04/26 20:57:53;;;;;;;3.78;1.17;;;;;;;12.92;59.84;100006.28;10416274;28;20069;-71
2023/04/26 21:02:54;;;;;;;7.22;1.50;;;;;;;13.44;60.00;100090.47;10415877;28;20456;-71
2023/04/26 21:07:55;;;;;;;8.23;1.55;;;;;;;13.43;60.08;100073.66;10416064;28;20049;-71
2023/04/26 21:12:56;;;;;;;5.10;1.05;;;;;;;13.39;60.28;100083.03;10416043;28;20116;-71
2023/04/26 21:17:56;;;;;;;5.82;1.50;;;;;;;13.18;60.62;100062.50;10413532;28;20065;-71
2023/04/26 21:22:57;;;;;;;4.70;1.33;;;;;;;13.07;61.17;100068.34;10412473;28;20049;-71
2023/04/26 21:27:58;;;;;;;6.60;1.65;;;;;;;13.02;61.67;100054.78;10414396;28;20132;-72
2023/04/26 21:32:59;;;;;;;8.10;1.30;;;;;;;12.94;61.65;100042.38;10414188;28;20041;-72
2023/04/26 21:38:00;;;;;;;9.40;1.50;;;;;;;12.68;61.92;99980.81;10414578;28;20045;-72
2023/04/26 21:43:00;;;;;;;4.13;1.10;;;;;;;13.03;62.22;100035.09;10413604;28;20069;-72
2023/04/26 21:48:01;;;;;;;12.18;1.55;;;;;;;12.99;62.38;100039.97;10414027;28;20118;-72
2023/04/26 21:53:02;;;;;;;8.40;1.80;;;;;;;12.88;62.52;100032.50;10413356;28;20417;-72
2023/04/26 21:58:03;;;;;;;10.30;1.42;;;;;;;12.20;63.10;99952.06;10414039;28;20121;-71
2023/04/26 22:03:03;;;;;;;5.25;1.25;;;;;;;12.21;63.54;99961.72;10413113;28;20048;-71
2023/04/26 22:08:04;;;;;;;4.82;1.33;;;;;;;12.05;63.55;99936.13;10413517;28;20508;-72
2023/04/26 22:13:05;;;;;;;3.85;1.33;;;;;;;12.44;63.33;99998.00;10414060;28;20048;-72
2023/04/26 22:18:06;;;;;;;4.05;1.52;;;;;;;12.52;63.01;100001.38;10412279;28;20057;-72
2023/04/26 22:23:07;;;;;;;3.15;1.40;;;;;;;12.40;63.81;99997.56;10413819;28;20041;-72
2023/04/26 22:28:08;;;;;;;4.32;1.30;;;;;;;12.29;64.17;99976.75;10413390;28;20051;-71
2023/04/26 22:33:10;;;;;;;14.88;1.63;;;;;;;12.33;64.41;99992.16;10413975;28;20116;-72
2023/04/26 22:38:11;;;;;;;2.40;1.15;;;;;;;12.27;64.15;99984.09;10422216;28;20057;-72
2023/04/26 22:43:12;;;;;;;4.53;1.30;;;;;;;12.17;64.31;99973.72;10420931;28;20552;-72
2023/04/26 22:48:13;;;;;;;5.50;1.30;;;;;;;12.14;64.37;99974.09;10421250;28;20386;-71
2023/04/26 22:53:14;;;;;;;5.75;1.27;;;;;;;11.62;64.48;99913.88;10420428;28;20041;-72
2023/04/26 22:58:16;;;;;;;7.40;1.60;;;;;;;12.06;65.24;99983.06;10420159;28;20098;-72
2023/04/26 23:03:16;;;;;;;5.40;1.42;;;;;;;12.01;65.21;99963.31;10420024;28;20041;-71
2023/04/26 23:08:17;;;;;;;5.30;1.67;;;;;;;11.49;65.42;99882.63;10419710;28;20049;-73
2023/04/26 23:13:18;;;;;;;7.35;1.48;;;;;;;11.91;66.16;99941.50;10382914;28;20049;-72
2023/04/26 23:18:19;;;;;;;4.82;1.48;;;;;;;11.87;66.80;99936.53;10379129;28;20124;-72
2023/04/26 23:23:20;;;;;;;9.93;2.50;;;;;;;11.83;67.75;99982.31;10378404;28;20124;-72
2023/04/26 23:28:20;;;;;;;9.55;1.95;;;;;;;11.71;68.83;99978.47;10378625;28;20050;-71
2023/04/26 23:33:22;;;;;;;5.72;1.38;;;;;;;11.63;68.74;99968.72;10378100;28;20127;-72
2023/04/26 23:38:23;;;;;;;3.38;1.38;;;;;;;11.40;69.18;99951.03;10379033;28;20042;-72
2023/04/26 23:43:24;;;;;;;5.88;1.55;;;;;;;11.47;70.04;99980.38;10376722;28;20038;-71
2023/04/26 23:48:25;;;;;;;5.40;1.60;;;;;;;11.37;70.50;99980.66;10377533;28;20050;-72
2023/04/26 23:53:26;;;;;;;8.23;1.90;;;;;;;10.84;70.65;99909.91;10377247;28;20049;-73
2023/04/26 23:58:27;;;;;;;2.85;1.45;;;;;;;11.00;71.13;99956.75;10378279;28;20041;-70
